Time;durP1;ratioP1;P1;durP2;ratioP2;P2;SDS_P1;SDS_P2;PMS_P1;PMS_P2;Temp;Humidity;BMP_temperature;BMP_pressure;BME280_temperature;BME280_humidity;BME280_pressure;Samples;Min_cycle;Max_cycle;Signal;HPM_P1;HPM_P2
2022/12/24 00:01:21;;;;;;;6.28;2.03;;;10.40;99.90;;;;;;5076905;28;20077;-81
2022/12/24 00:03:47;;;;;;;10.07;2.38;;;10.40;99.90;;;;;;5076484;28;20017;-79
2022/12/24 00:06:19;;;;;;;5.35;2.20;;;10.40;99.90;;;;;;5078487;28;20043;-80
2022/12/24 00:08:45;;;;;;;8.65;1.88;;;10.40;99.90;;;;;;5075404;28;20024;-81
2022/12/24 00:11:11;;;;;;;11.25;2.17;;;10.40;99.90;;;;;;5075194;28;20032;-80
2022/12/24 00:13:36;;;;;;;8.98;2.42;;;10.40;99.90;;;;;;5071799;28;20302;-80
2022/12/24 00:16:02;;;;;;;13.88;2.45;;;10.40;99.90;;;;;;5076028;28;20027;-80
2022/12/24 00:18:27;;;;;;;14.27;2.67;;;10.40;99.90;;;;;;5074243;28;20040;-80
2022/12/24 00:20:54;;;;;;;11.88;2.67;;;10.30;99.90;;;;;;5074469;28;20048;-82
2022/12/24 00:23:20;;;;;;;11.18;2.33;;;10.30;99.90;;;;;;5075041;28;20025;-80
2022/12/24 00:25:46;;;;;;;20.35;3.17;;;10.30;99.90;;;;;;5077531;28;20046;-80
2022/12/24 00:28:12;;;;;;;8.88;2.30;;;10.30;99.90;;;;;;5075751;28;20095;-82
2022/12/24 00:30:40;;;;;;;9.10;2.25;;;10.30;99.90;;;;;;5075022;28;20458;-80
2022/12/24 00:33:06;;;;;;;16.15;2.95;;;10.30;99.90;;;;;;5071447;28;20035;-80
2022/12/24 00:35:36;;;;;;;9.38;1.90;;;10.40;99.90;;;;;;5074320;28;20028;-81
2022/12/24 00:38:02;;;;;;;12.98;2.83;;;10.40;99.90;;;;;;5075085;28;20140;-81
2022/12/24 00:40:29;;;;;;;9.75;2.30;;;10.40;99.90;;;;;;5071283;28;20036;-81
2022/12/24 00:42:56;;;;;;;8.38;1.83;;;10.40;99.90;;;;;;5071127;28;20570;-81
2022/12/24 00:45:22;;;;;;;10.52;2.33;;;10.40;99.90;;;;;;5068745;28;20449;-81
2022/12/24 00:47:47;;;;;;;10.25;2.70;;;10.40;99.90;;;;;;5072270;28;20056;-80
2022/12/24 00:50:14;;;;;;;7.45;1.95;;;10.40;99.90;;;;;;5070244;28;20349;-81
2022/12/24 00:52:39;;;;;;;6.55;1.52;;;10.40;99.90;;;;;;5073089;28;20024;-80
2022/12/24 00:55:05;;;;;;;12.55;1.92;;;10.40;99.90;;;;;;5074274;28;20081;-80
2022/12/24 00:57:31;;;;;;;8.95;1.40;;;10.40;99.90;;;;;;5077094;28;20465;-80
2022/12/24 00:59:56;;;;;;;3.80;1.25;;;10.30;99.90;;;;;;5072245;28;20028;-80
2022/12/24 01:02:22;;;;;;;8.25;1.50;;;10.30;99.90;;;;;;5072632;28;20024;-80
2022/12/24 01:07:32;;;;;;;6.18;1.20;;;10.30;99.90;;;;;;5072358;28;20040;-80
2022/12/24 01:09:58;;;;;;;4.65;1.50;;;10.30;99.90;;;;;;5071529;28;20625;-80
2022/12/24 01:12:24;;;;;;;1.95;1.10;;;10.30;99.90;;;;;;5072556;28;20427;-79
2022/12/24 01:14:50;;;;;;;7.75;1.27;;;10.20;99.90;;;;;;5071950;28;20090;-79
2022/12/24 01:17:16;;;;;;;4.75;1.40;;;10.20;99.90;;;;;;5076879;28;20024;-79
2022/12/24 01:19:41;;;;;;;2.05;1.17;;;10.20;99.90;;;;;;5068332;28;20039;-80
2022/12/24 01:22:07;;;;;;;2.25;1.13;;;10.20;99.90;;;;;;5075730;28;20033;-80
2022/12/24 01:24:32;;;;;;;2.25;0.93;;;10.20;99.90;;;;;;5075765;28;20368;-79
2022/12/24 01:26:58;;;;;;;5.00;1.30;;;10.20;99.90;;;;;;5075500;28;20457;-79
2022/12/24 01:29:24;;;;;;;2.45;1.10;;;10.20;99.90;;;;;;5074855;28;20024;-80
2022/12/24 01:31:49;;;;;;;2.45;1.20;;;10.20;99.90;;;;;;5074855;28;20443;-80
2022/12/24 01:34:15;;;;;;;3.30;0.90;;;10.10;99.90;;;;;;5075943;28;20103;-79
2022/12/24 01:36:40;;;;;;;7.65;1.08;;;10.20;99.90;;;;;;5073227;28;20108;-80
2022/12/24 01:39:06;;;;;;;3.08;0.80;;;10.20;99.90;;;;;;5073601;28;20033;-80
2022/12/24 01:44:19;;;;;;;3.67;1.15;;;10.20;99.90;;;;;;5077783;28;20374;-81
2022/12/24 01:46:46;;;;;;;2.90;1.00;;;10.10;99.90;;;;;;5077409;28;20025;-80
2022/12/24 01:49:14;;;;;;;1.20;0.60;;;10.20;99.90;;;;;;5076515;28;20119;-79
2022/12/24 01:51:46;;;;;;;3.75;0.90;;;10.20;99.90;;;;;;5074614;28;20036;-80
2022/12/24 01:54:19;;;;;;;1.55;0.77;;;10.20;99.90;;;;;;5077698;28;20028;-80
2022/12/24 01:57:11;;;;;;;1.35;0.80;;;10.20;99.90;;;;;;5076334;28;20032;-80
2022/12/24 01:59:40;;;;;;;9.40;1.60;;;10.20;99.90;;;;;;5075900;28;20044;-81
2022/12/24 02:02:06;;;;;;;3.47;0.90;;;10.30;99.90;;;;;;5076265;28;20040;-80
2022/12/24 02:04:53;;;;;;;4.07;1.17;;;10.30;99.90;;;;;;5076271;28;20047;-80
2022/12/24 02:07:19;;;;;;;0.77;0.70;;;10.30;99.90;;;;;;5073967;28;20070;-83
2022/12/24 02:09:46;;;;;;;2.42;1.10;;;10.40;99.90;;;;;;5075525;28;20025;-81
2022/12/24 02:12:11;;;;;;;1.27;0.75;;;10.30;99.90;;;;;;5075437;28;20028;-79
2022/12/24 02:14:37;;;;;;;3.38;1.02;;;10.30;99.90;;;;;;5077946;28;20028;-81
2022/12/24 02:17:24;;;;;;;4.57;0.90;;;10.30;99.90;;;;;;5075581;28;20032;-81
2022/12/24 02:20:02;;;;;;;1.85;0.85;;;10.30;99.90;;;;;;5068502;28;20039;-81
2022/12/24 02:22:39;;;;;;;2.25;1.08;;;10.30;99.90;;;;;;5072218;28;20532;-80
2022/12/24 02:25:40;;;;;;;3.53;1.08;;;10.20;99.90;;;;;;5073000;28;20021;-81
2022/12/24 02:28:06;;;;;;;6.90;1.02;;;10.30;99.90;;;;;;5072031;28;20081;-79
2022/12/24 02:30:44;;;;;;;2.17;1.33;;;10.20;99.90;;;;;;5078575;28;20125;-80
2022/12/24 02:33:13;;;;;;;1.95;1.00;;;10.30;99.90;;;;;;5077130;28;20020;-80
2022/12/24 02:35:54;;;;;;;3.03;0.80;;;10.30;99.90;;;;;;5074750;28;20023;-79
2022/12/24 02:38:38;;;;;;;4.75;0.80;;;10.20;99.90;;;;;;5067644;28;20032;-80
2022/12/24 02:41:14;;;;;;;2.30;0.93;;;10.20;99.90;;;;;;5072483;28;20036;-80
2022/12/24 02:43:44;;;;;;;6.80;0.90;;;10.20;99.90;;;;;;5071912;28;20024;-81
2022/12/24 02:46:17;;;;;;;2.25;0.85;;;10.10;99.90;;;;;;5074377;28;20475;-79
2022/12/24 02:48:46;;;;;;;3.20;0.73;;;10.00;99.90;;;;;;5076327;28;20032;-82
2022/12/24 02:51:12;;;;;;;1.90;0.65;;;10.00;99.90;;;;;;5075605;28;20032;-81
2022/12/24 02:53:39;;;;;;;2.50;0.88;;;10.00;99.90;;;;;;5074418;28;20012;-80
2022/12/24 02:56:45;;;;;;;1.98;1.00;;;10.00;99.90;;;;;;5082988;28;20461;-80
2022/12/24 02:59:23;;;;;;;3.20;1.05;;;10.00;99.90;;;;;;5027796;28;23065;-80
2022/12/24 03:02:06;;;;;;;1.90;0.88;;;10.00;99.90;;;;;;5026667;28;20072;-81
2022/12/24 03:04:51;;;;;;;2.80;1.02;;;10.10;99.90;;;;;;5064593;28;20112;-81
2022/12/24 03:07:25;;;;;;;3.53;0.90;;;10.10;99.90;;;;;;5073811;28;20029;-81
2022/12/24 03:10:17;;;;;;;2.72;1.50;;;10.00;99.90;;;;;;5075118;28;20545;-78
2022/12/24 03:12:57;;;;;;;2.05;1.15;;;10.00;99.90;;;;;;5073646;28;20021;-80
2022/12/24 03:15:24;;;;;;;2.67;1.40;;;10.00;99.90;;;;;;5073643;28;20487;-79
2022/12/24 03:17:54;;;;;;;4.75;1.10;;;10.00;99.90;;;;;;5084329;28;20090;-79
2022/12/24 03:20:27;;;;;;;4.80;1.38;;;10.00;99.90;;;;;;5083112;28;20032;-79
2022/12/24 03:22:52;;;;;;;3.03;1.00;;;9.90;99.90;;;;;;5083336;28;20503;-79
2022/12/24 03:25:23;;;;;;;4.75;1.30;;;9.90;99.90;;;;;;5076688;28;20028;-80
2022/12/24 03:27:48;;;;;;;5.25;1.50;;;10.00;99.90;;;;;;5074999;28;20055;-81
2022/12/24 03:30:17;;;;;;;1.95;1.30;;;10.00;99.90;;;;;;5078647;28;20032;-80
2022/12/24 03:32:43;;;;;;;4.22;1.63;;;10.00;99.90;;;;;;5074389;28;20542;-82
2022/12/24 03:35:09;;;;;;;3.30;1.30;;;10.00;99.90;;;;;;5076733;28;20028;-79
2022/12/24 03:37:35;;;;;;;4.20;1.33;;;10.00;99.90;;;;;;5056157;28;20044;-80
2022/12/24 03:40:00;;;;;;;3.10;1.42;;;10.00;99.90;;;;;;5071164;28;20059;-79
2022/12/24 03:42:26;;;;;;;3.85;1.50;;;9.90;99.90;;;;;;5080926;28;20028;-78
2022/12/24 03:44:52;;;;;;;5.22;1.25;;;9.90;99.90;;;;;;5069875;28;20028;-80
2022/12/24 03:47:17;;;;;;;4.97;1.05;;;9.90;99.90;;;;;;5083044;28;20025;-79
2022/12/24 03:49:43;;;;;;;3.92;1.20;;;9.90;99.90;;;;;;5082803;28;20032;-79
2022/12/24 03:52:08;;;;;;;2.05;1.05;;;9.90;99.90;;;;;;5079199;28;20115;-79
2022/12/24 03:54:34;;;;;;;2.45;1.20;;;9.90;99.90;;;;;;5084722;28;20368;-82
2022/12/24 03:56:59;;;;;;;3.15;1.42;;;9.90;99.90;;;;;;5077776;28;20358;-80
2022/12/24 03:59:26;;;;;;;4.65;1.27;;;9.90;99.90;;;;;;5077152;28;20412;-79
2022/12/24 04:01:52;;;;;;;2.85;1.23;;;9.90;99.90;;;;;;5074173;28;20377;-81
2022/12/24 04:04:17;;;;;;;12.90;1.60;;;9.90;99.90;;;;;;5073048;28;20020;-81
2022/12/24 04:06:43;;;;;;;4.70;1.40;;;9.90;99.90;;;;;;5073222;28;20115;-80
2022/12/24 04:09:08;;;;;;;7.82;2.28;;;9.90;99.90;;;;;;5074399;28;20427;-81
2022/12/24 04:11:34;;;;;;;13.00;2.28;;;9.90;99.90;;;;;;5071013;28;20342;-81
2022/12/24 04:13:59;;;;;;;11.70;2.40;;;9.90;99.90;;;;;;5081360;28;20032;-82
2022/12/24 04:16:25;;;;;;;10.88;2.78;;;9.80;99.90;;;;;;5077275;28;20099;-80
2022/12/24 04:18:51;;;;;;;14.63;2.72;;;9.80;99.90;;;;;;5073943;28;20115;-82
2022/12/24 04:21:16;;;;;;;7.75;1.98;;;9.90;99.90;;;;;;5079925;28;20089;-80
2022/12/24 04:23:42;;;;;;;13.85;2.80;;;9.90;99.90;;;;;;5083473;28;20403;-79
2022/12/24 04:26:10;;;;;;;17.10;2.92;;;9.80;99.90;;;;;;5083573;28;20043;-79
2022/12/24 04:28:37;;;;;;;17.90;3.42;;;9.80;99.90;;;;;;5076100;28;20103;-79
2022/12/24 04:31:06;;;;;;;13.73;3.40;;;9.90;99.90;;;;;;5074902;28;20032;-80
2022/12/24 04:33:33;;;;;;;13.35;3.50;;;9.90;99.90;;;;;;5075568;28;20473;-81
2022/12/24 04:36:00;;;;;;;10.32;3.08;;;9.90;99.90;;;;;;5073936;28;20056;-80
2022/12/24 04:38:27;;;;;;;11.25;2.75;;;9.90;99.90;;;;;;5080502;28;20540;-80
2022/12/24 04:41:03;;;;;;;10.27;3.05;;;9.80;99.90;;;;;;5077941;28;20062;-80
2022/12/24 04:43:29;;;;;;;19.42;3.40;;;9.80;99.90;;;;;;5081516;28;20028;-79
2022/12/24 04:46:02;;;;;;;25.30;4.65;;;9.70;99.90;;;;;;5081523;28;20028;-81
2022/12/24 04:48:28;;;;;;;21.70;3.97;;;9.70;99.90;;;;;;5078184;28;20377;-80
2022/12/24 04:50:53;;;;;;;23.30;5.28;;;9.70;99.90;;;;;;5054814;28;20024;-80
2022/12/24 04:53:19;;;;;;;20.10;5.47;;;9.70;99.90;;;;;;5073455;28;20141;-81
2022/12/24 04:55:45;;;;;;;19.30;3.72;;;9.70;99.90;;;;;;5074792;28;20036;-82
2022/12/24 04:58:12;;;;;;;27.50;5.80;;;9.70;99.90;;;;;;5078661;28;20153;-82
2022/12/24 05:00:38;;;;;;;18.38;3.92;;;9.60;99.90;;;;;;5076099;28;20067;-80
2022/12/24 05:03:04;;;;;;;21.15;4.35;;;9.60;99.90;;;;;;5083462;28;20032;-81
2022/12/24 05:05:29;;;;;;;28.40;4.80;;;9.60;99.90;;;;;;5074534;28;20018;-81
2022/12/24 05:07:55;;;;;;;28.67;5.13;;;9.60;99.90;;;;;;5074327;28;20046;-80
2022/12/24 05:10:21;;;;;;;26.77;4.20;;;9.60;99.90;;;;;;5074971;28;20055;-80
2022/12/24 05:12:46;;;;;;;24.45;3.65;;;9.60;99.90;;;;;;5073440;28;20024;-81
2022/12/24 05:15:12;;;;;;;17.13;4.13;;;9.60;99.90;;;;;;5073437;28;20050;-80
2022/12/24 05:17:38;;;;;;;21.00;4.32;;;9.60;99.90;;;;;;5078087;28;20027;-81
2022/12/24 05:20:06;;;;;;;23.33;3.90;;;9.60;99.90;;;;;;5070402;28;20465;-81
2022/12/24 05:28:01;;;;;;;20.33;5.40;;;9.60;99.90;;;;;;5072737;28;20035;-82
2022/12/24 05:30:26;;;;;;;15.90;3.92;;;9.60;99.90;;;;;;5072999;28;20380;-81
2022/12/24 05:32:52;;;;;;;20.05;3.92;;;9.60;99.90;;;;;;5069417;28;20031;-80
2022/12/24 05:35:17;;;;;;;25.35;4.30;;;9.50;99.90;;;;;;5054207;28;20027;-80
2022/12/24 05:37:43;;;;;;;24.05;4.28;;;9.50;99.90;;;;;;5071973;28;20024;-81
2022/12/24 05:40:09;;;;;;;27.95;4.47;;;9.50;99.90;;;;;;5071755;28;20058;-81
2022/12/24 05:42:35;;;;;;;18.45;3.80;;;9.50;99.90;;;;;;5071774;28;20047;-81
2022/12/24 05:45:01;;;;;;;24.27;5.38;;;9.50;99.90;;;;;;5075709;28;20031;-81
2022/12/24 05:47:27;;;;;;;24.60;5.00;;;9.50;99.90;;;;;;5071635;28;20090;-80
2022/12/24 05:49:52;;;;;;;29.63;5.18;;;9.50;99.90;;;;;;5071861;28;20385;-82
2022/12/24 05:52:18;;;;;;;27.05;5.43;;;9.50;99.90;;;;;;5071604;28;20017;-81
2022/12/24 05:54:43;;;;;;;25.58;4.78;;;9.60;99.90;;;;;;5071309;28;20032;-84
2022/12/24 05:57:09;;;;;;;23.55;5.78;;;9.60;99.90;;;;;;5069342;28;20377;-80
2022/12/24 05:59:37;;;;;;;23.60;4.32;;;9.60;99.90;;;;;;5068492;28;20031;-81
2022/12/24 06:02:03;;;;;;;27.60;5.13;;;9.60;99.90;;;;;;5067706;28;20048;-85
2022/12/24 06:04:28;;;;;;;31.35;6.68;;;9.60;99.90;;;;;;5056325;28;20048;-80
2022/12/24 06:06:54;;;;;;;24.25;5.22;;;9.60;99.90;;;;;;5076594;28;20031;-82
2022/12/24 06:09:20;;;;;;;41.60;7.85;;;9.50;99.90;;;;;;5081068;28;20028;-80
2022/12/24 06:11:47;;;;;;;33.63;7.97;;;9.50;99.90;;;;;;5081242;28;20027;-79
2022/12/24 06:14:12;;;;;;;22.70;5.80;;;9.50;99.90;;;;;;5067963;28;20025;-83
2022/12/24 06:16:38;;;;;;;32.38;6.93;;;9.50;99.90;;;;;;5080953;28;20039;-80
2022/12/24 06:19:04;;;;;;;31.00;5.72;;;9.50;99.90;;;;;;5080311;28;20457;-80
2022/12/24 06:21:29;;;;;;;35.80;6.47;;;9.50;99.90;;;;;;5071802;28;20037;-81
2022/12/24 06:23:55;;;;;;;21.90;4.45;;;9.50;99.90;;;;;;5073980;28;20470;-84
2022/12/24 06:26:22;;;;;;;26.50;6.30;;;9.50;99.90;;;;;;5070803;28;20458;-79
2022/12/24 06:28:49;;;;;;;32.15;5.47;;;9.60;99.90;;;;;;5075634;28;20376;-82
2022/12/24 06:31:17;;;;;;;24.30;5.75;;;9.50;99.90;;;;;;5082737;28;20024;-82
2022/12/24 06:33:43;;;;;;;44.22;7.45;;;9.40;99.90;;;;;;5079252;28;20025;-79
2022/12/24 06:36:13;;;;;;;26.50;4.80;;;9.40;99.90;;;;;;5077173;28;20016;-81
2022/12/24 06:38:39;;;;;;;33.35;5.53;;;9.40;99.90;;;;;;5071864;28;20032;-81
2022/12/24 06:41:06;;;;;;;26.13;4.20;;;9.30;99.90;;;;;;5077732;28;20166;-79
2022/12/24 06:43:35;;;;;;;25.35;4.78;;;9.30;99.90;;;;;;5080975;28;20032;-81
2022/12/24 06:46:02;;;;;;;39.03;6.20;;;9.30;99.90;;;;;;5069716;28;20016;-80
2022/12/24 06:48:27;;;;;;;37.55;5.75;;;9.20;99.90;;;;;;5074766;28;20026;-81
2022/12/24 06:50:53;;;;;;;32.35;5.30;;;9.20;99.90;;;;;;5080532;28;20469;-81
2022/12/24 06:53:19;;;;;;;29.90;7.93;;;9.20;99.90;;;;;;5073599;28;20093;-82
2022/12/24 06:55:44;;;;;;;33.10;5.50;;;9.20;99.90;;;;;;5072721;28;20427;-83
2022/12/24 06:58:10;;;;;;;24.90;5.25;;;9.20;99.90;;;;;;5074929;28;20101;-80
2022/12/24 07:00:38;;;;;;;32.83;5.75;;;9.20;99.90;;;;;;5069791;28;20035;-81
2022/12/24 07:03:04;;;;;;;35.90;5.95;;;9.20;99.90;;;;;;5073169;28;20125;-81
2022/12/24 07:05:30;;;;;;;28.38;5.57;;;9.20;99.90;;;;;;5075212;28;20024;-82
2022/12/24 07:07:55;;;;;;;28.08;5.00;;;9.20;99.90;;;;;;5075838;28;20017;-83
2022/12/24 07:10:22;;;;;;;29.35;5.63;;;9.20;99.90;;;;;;5070427;28;20024;-82
2022/12/24 07:12:47;;;;;;;38.90;8.20;;;9.20;99.90;;;;;;5071250;28;20020;-80
2022/12/24 07:15:14;;;;;;;28.95;5.70;;;9.20;99.90;;;;;;5075745;28;20021;-81
2022/12/24 07:17:40;;;;;;;27.13;6.25;;;9.20;99.90;;;;;;5075426;28;20373;-84
2022/12/24 07:20:10;;;;;;;32.53;6.63;;;9.10;99.90;;;;;;5074231;28;20020;-80
2022/12/24 07:22:35;;;;;;;23.80;5.68;;;9.10;99.90;;;;;;5074575;28;20107;-80
2022/12/24 07:25:01;;;;;;;28.95;7.70;;;9.10;99.90;;;;;;5074138;28;20414;-79
2022/12/24 07:27:27;;;;;;;40.60;9.35;;;9.00;99.90;;;;;;5072394;28;20032;-80
2022/12/24 07:29:52;;;;;;;80.47;24.50;;;9.00;99.90;;;;;;5055691;28;20020;-79
2022/12/24 07:32:19;;;;;;;104.72;35.25;;;9.00;99.90;;;;;;5070958;28;20376;-81
2022/12/24 07:34:45;;;;;;;41.78;8.18;;;8.90;99.90;;;;;;5073455;28;20035;-81
2022/12/24 07:37:12;;;;;;;40.83;6.18;;;8.90;99.90;;;;;;5071840;28;20025;-80
2022/12/24 07:39:37;;;;;;;38.05;6.32;;;8.90;99.90;;;;;;5071757;28;20070;-80
2022/12/24 07:42:06;;;;;;;57.58;15.52;;;8.90;99.90;;;;;;5072353;28;20036;-80
2022/12/24 07:44:32;;;;;;;32.65;7.15;;;8.90;99.90;;;;;;5070710;28;20025;-80
2022/12/24 07:46:58;;;;;;;67.32;23.08;;;8.90;99.90;;;;;;5082013;28;20031;-80
2022/12/24 07:49:23;;;;;;;39.08;8.07;;;8.90;99.90;;;;;;5075913;28;20115;-81
2022/12/24 07:51:49;;;;;;;41.90;8.20;;;8.90;99.90;;;;;;5075307;28;20028;-81
2022/12/24 07:54:14;;;;;;;37.10;7.68;;;8.90;99.90;;;;;;5080963;28;20039;-80
2022/12/24 07:56:41;;;;;;;26.10;6.05;;;8.90;99.90;;;;;;5072065;28;20032;-81
2022/12/24 07:59:10;;;;;;;32.53;4.60;;;8.90;99.90;;;;;;5076148;28;20093;-81
2022/12/24 08:01:37;;;;;;;32.75;6.68;;;8.90;99.90;;;;;;5071358;28;20056;-79
2022/12/24 08:04:02;;;;;;;41.53;6.78;;;8.90;99.90;;;;;;5075066;28;20024;-80
2022/12/24 08:06:28;;;;;;;41.08;8.25;;;8.90;99.90;;;;;;5056767;28;20013;-80
2022/12/24 08:08:53;;;;;;;38.67;6.05;;;8.90;99.90;;;;;;5075527;28;20111;-80
2022/12/24 08:11:19;;;;;;;38.47;5.80;;;8.90;99.90;;;;;;5078229;28;20477;-80
2022/12/24 08:13:45;;;;;;;28.73;5.65;;;8.90;99.90;;;;;;5075489;28;20028;-81
2022/12/24 08:16:13;;;;;;;30.23;5.65;;;8.90;99.90;;;;;;5074169;28;20550;-78
2022/12/24 08:18:39;;;;;;;37.65;7.10;;;8.90;99.90;;;;;;5065765;28;20480;-82
2022/12/24 08:21:08;;;;;;;41.47;7.30;;;8.90;99.90;;;;;;5073918;28;20127;-82
2022/12/24 08:23:35;;;;;;;32.70;6.60;;;9.00;99.90;;;;;;5071702;28;20028;-80
2022/12/24 08:26:07;;;;;;;40.90;9.52;;;9.00;99.90;;;;;;5073424;28;20020;-79
2022/12/24 08:28:33;;;;;;;35.30;6.03;;;9.00;99.90;;;;;;5073136;28;20031;-81
2022/12/24 08:30:59;;;;;;;34.08;6.28;;;9.00;99.90;;;;;;5074611;28;20111;-80
2022/12/24 08:33:24;;;;;;;33.60;8.48;;;9.00;99.90;;;;;;5072482;28;20032;-80
2022/12/24 08:35:52;;;;;;;37.33;6.90;;;9.00;99.90;;;;;;5070233;28;20024;-81
2022/12/24 08:38:19;;;;;;;52.05;7.82;;;9.00;99.90;;;;;;5071921;28;20039;-82
2022/12/24 08:40:47;;;;;;;27.77;6.18;;;9.00;99.90;;;;;;5073514;28;20037;-81
2022/12/24 08:43:13;;;;;;;32.47;6.68;;;9.10;99.90;;;;;;5071643;28;20078;-81
2022/12/24 08:45:39;;;;;;;23.75;5.53;;;9.10;99.90;;;;;;5056655;28;20016;-80
2022/12/24 08:48:07;;;;;;;32.15;8.00;;;9.10;99.90;;;;;;5073237;28;20458;-80
2022/12/24 08:50:33;;;;;;;40.70;6.30;;;9.10;99.90;;;;;;5071173;28;20043;-80
2022/12/24 08:52:59;;;;;;;30.25;6.05;;;9.20;99.90;;;;;;5071783;28;20107;-80
2022/12/24 08:55:25;;;;;;;43.00;7.38;;;9.20;99.90;;;;;;5080048;28;20392;-80
2022/12/24 08:57:50;;;;;;;37.70;6.88;;;9.30;99.90;;;;;;5072155;28;20048;-80
2022/12/24 09:00:16;;;;;;;37.30;6.25;;;9.30;99.90;;;;;;5072931;28;20087;-81
2022/12/24 09:02:42;;;;;;;39.78;5.95;;;9.30;99.90;;;;;;5075550;28;20473;-82
2022/12/24 09:05:08;;;;;;;38.13;7.50;;;9.30;99.90;;;;;;5071473;28;20016;-80
2022/12/24 09:07:33;;;;;;;32.97;5.97;;;9.40;99.90;;;;;;5074751;28;20495;-80
2022/12/24 09:09:59;;;;;;;29.92;6.15;;;9.40;99.90;;;;;;5074162;28;20036;-80
2022/12/24 09:12:24;;;;;;;35.67;6.72;;;9.40;99.90;;;;;;5071628;28;20027;-81
2022/12/24 09:14:53;;;;;;;37.20;5.90;;;9.40;99.90;;;;;;5069186;28;20020;-81
2022/12/24 09:17:19;;;;;;;31.50;5.35;;;9.40;99.90;;;;;;5070116;28;20055;-81
2022/12/24 09:19:45;;;;;;;40.33;5.60;;;9.50;99.90;;;;;;5051745;28;20524;-81
2022/12/24 09:22:11;;;;;;;31.20;6.35;;;9.40;99.90;;;;;;5076129;28;20047;-80
2022/12/24 09:24:36;;;;;;;26.88;5.20;;;9.40;99.90;;;;;;5074844;28;20054;-83
2022/12/24 09:27:02;;;;;;;31.80;5.32;;;9.50;99.90;;;;;;5075459;28;20028;-79
2022/12/24 09:29:29;;;;;;;37.45;6.45;;;9.50;99.90;;;;;;5075281;28;20081;-80
2022/12/24 09:31:55;;;;;;;34.33;5.32;;;9.50;99.90;;;;;;5076783;28;20028;-80
2022/12/24 09:34:20;;;;;;;35.03;6.00;;;9.60;99.90;;;;;;5077159;28;20028;-82
2022/12/24 09:36:46;;;;;;;27.38;5.35;;;9.60;99.90;;;;;;5074759;28;20028;-80
2022/12/24 09:39:12;;;;;;;35.00;6.00;;;9.60;99.90;;;;;;5071091;28;20047;-82
2022/12/24 09:41:48;;;;;;;30.35;5.65;;;9.60;99.90;;;;;;5074234;28;20043;-80
2022/12/24 09:44:26;;;;;;;37.63;7.47;;;9.60;99.90;;;;;;5070619;28;20112;-81
2022/12/24 09:46:53;;;;;;;29.02;5.05;;;9.70;99.90;;;;;;5070165;28;20028;-79
2022/12/24 09:49:24;;;;;;;31.15;6.35;;;9.70;99.90;;;;;;5074326;28;20043;-80
2022/12/24 09:51:55;;;;;;;29.42;5.80;;;9.70;99.90;;;;;;5070371;28;20080;-81
2022/12/24 09:54:34;;;;;;;42.13;6.80;;;9.80;99.90;;;;;;5066517;28;20021;-79
2022/12/24 09:57:12;;;;;;;44.00;6.32;;;9.80;99.90;;;;;;5073932;28;20517;-80
2022/12/24 09:59:43;;;;;;;35.53;7.28;;;9.80;99.90;;;;;;5070936;28;20028;-82
2022/12/24 10:02:19;;;;;;;20.40;5.20;;;9.80;99.90;;;;;;5081611;28;20063;-80
2022/12/24 10:04:46;;;;;;;;;;;9.80;99.90;;;;;;5078156;28;20032;-80
2022/12/24 10:07:36;;;;;;;22.33;4.80;;;9.90;99.90;;;;;;5085424;28;19912;-80
2022/12/24 10:10:21;;;;;;;28.02;4.25;;;9.90;99.90;;;;;;5087206;28;20031;-79
2022/12/24 10:13:11;;;;;;;24.42;4.43;;;10.00;99.90;;;;;;5087685;28;20028;-80
2022/12/24 10:15:53;;;;;;;24.80;4.60;;;9.90;99.90;;;;;;5072542;28;20036;-80
2022/12/24 10:18:19;;;;;;;30.25;5.70;;;9.90;99.90;;;;;;5087561;28;20032;-80
2022/12/24 10:20:47;;;;;;;26.58;5.05;;;9.90;99.90;;;;;;5083771;28;20033;-80
2022/12/24 10:23:22;;;;;;;32.28;6.15;;;9.80;99.90;;;;;;5079946;28;20017;-81
2022/12/24 10:26:12;;;;;;;27.45;4.32;;;9.80;99.90;;;;;;5071159;28;20024;-81
2022/12/24 10:28:55;;;;;;;19.98;4.40;;;9.80;99.90;;;;;;5069177;28;20069;-82
2022/12/24 10:31:48;;;;;;;17.08;3.65;;;9.90;99.90;;;;;;5078280;28;20031;-82
2022/12/24 10:34:23;;;;;;;15.13;2.85;;;10.00;99.90;;;;;;5077599;28;20035;-82
2022/12/24 10:36:48;;;;;;;14.75;3.13;;;10.00;99.90;;;;;;5073075;28;20032;-82
2022/12/24 10:39:22;;;;;;;15.18;2.63;;;10.00;99.90;;;;;;5078299;28;20029;-80
2022/12/24 10:41:52;;;;;;;17.00;2.90;;;10.00;99.90;;;;;;5077442;28;20560;-80
2022/12/24 10:44:21;;;;;;;35.63;11.65;;;10.00;99.90;;;;;;5072565;28;20035;-81
2022/12/24 10:46:47;;;;;;;72.95;22.55;;;9.90;99.90;;;;;;5076633;28;20029;-81
2022/12/24 10:49:22;;;;;;;41.70;11.60;;;9.90;99.90;;;;;;5075873;28;20036;-80
2022/12/24 10:52:04;;;;;;;20.05;5.85;;;10.00;99.90;;;;;;5083280;28;20488;-81
2022/12/24 10:54:37;;;;;;;15.70;3.78;;;9.90;99.90;;;;;;5085636;28;20489;-79
2022/12/24 10:57:04;;;;;;;15.10;3.13;;;9.90;99.90;;;;;;5074761;28;20031;-81
2022/12/24 10:59:49;;;;;;;19.63;7.72;;;9.90;99.90;;;;;;5075514;28;20100;-81
2022/12/24 11:02:28;;;;;;;23.65;9.90;;;9.90;99.90;;;;;;5072124;28;20036;-80
2022/12/24 11:04:54;;;;;;;12.90;3.17;;;9.90;99.90;;;;;;5074482;28;20024;-80
2022/12/24 11:07:21;;;;;;;17.65;2.95;;;9.90;99.90;;;;;;5077733;28;20028;-80
2022/12/24 11:10:22;;;;;;;9.38;2.63;;;9.90;99.90;;;;;;5079646;28;20012;-81
2022/12/24 11:12:48;;;;;;;16.38;3.08;;;9.90;99.90;;;;;;5055758;28;20075;-82
2022/12/24 11:15:26;;;;;;;14.45;3.40;;;10.00;99.90;;;;;;5074142;28;20384;-81
2022/12/24 11:18:03;;;;;;;17.65;3.70;;;10.00;99.90;;;;;;5069576;28;20020;-81
2022/12/24 11:20:32;;;;;;;26.65;3.95;;;10.00;99.90;;;;;;5073794;28;20509;-81
2022/12/24 11:22:58;;;;;;;19.25;3.40;;;10.00;99.90;;;;;;5086152;28;20127;-81
2022/12/24 11:25:30;;;;;;;18.63;3.83;;;10.00;99.90;;;;;;5086376;28;20106;-80
2022/12/24 11:28:11;;;;;;;17.23;4.13;;;10.00;99.90;;;;;;5085908;28;20035;-81
2022/12/24 11:30:37;;;;;;;16.80;3.65;;;10.10;99.90;;;;;;5082132;28;20030;-80
2022/12/24 11:33:03;;;;;;;18.10;3.80;;;10.10;99.90;;;;;;5079771;28;20362;-81
2022/12/24 11:35:31;;;;;;;23.42;4.05;;;10.10;99.90;;;;;;5076679;28;20086;-81
2022/12/24 11:38:00;;;;;;;14.82;3.80;;;10.00;99.90;;;;;;5078648;28;20039;-81
2022/12/24 11:40:33;;;;;;;20.13;3.88;;;10.00;99.90;;;;;;5086547;28;20036;-80
2022/12/24 11:43:01;;;;;;;18.83;4.03;;;10.00;99.90;;;;;;5085252;28;20028;-81
2022/12/24 11:45:30;;;;;;;20.42;4.70;;;10.00;99.90;;;;;;5085267;28;20031;-81
2022/12/24 11:47:56;;;;;;;17.33;5.00;;;10.00;99.90;;;;;;5084711;28;20027;-81
2022/12/24 11:50:28;;;;;;;14.90;4.18;;;10.00;99.90;;;;;;5083716;28;20515;-82
2022/12/24 11:53:03;;;;;;;25.63;6.18;;;10.00;99.90;;;;;;5083850;28;20027;-80
2022/12/24 11:55:46;;;;;;;17.90;3.50;;;10.10;99.90;;;;;;5084884;28;20020;-81
2022/12/24 11:58:44;;;;;;;13.57;3.33;;;10.20;99.90;;;;;;5071025;28;20045;-82
2022/12/24 12:01:23;;;;;;;11.90;3.08;;;10.20;99.90;;;;;;5029442;28;20048;-80
2022/12/24 12:03:55;;;;;;;16.55;3.03;;;10.30;99.90;;;;;;5074299;28;20031;-81
2022/12/24 12:06:35;;;;;;;22.10;5.07;;;10.30;99.90;;;;;;5072697;28;20024;-81
2022/12/24 12:09:06;;;;;;;18.58;3.40;;;10.30;99.90;;;;;;5065058;28;20035;-80
2022/12/24 12:11:37;;;;;;;6.30;2.22;;;10.20;99.90;;;;;;5083779;28;20504;-82
2022/12/24 12:14:04;;;;;;;11.48;2.88;;;10.10;99.90;;;;;;5081292;28;20024;-81
2022/12/24 12:17:03;;;;;;;9.50;3.38;;;10.00;99.90;;;;;;5082886;28;20360;-81
2022/12/24 12:19:45;;;;;;;9.63;2.30;;;9.90;99.90;;;;;;5079346;28;20089;-81
2022/12/24 12:22:38;;;;;;;8.50;2.40;;;9.70;99.90;;;;;;5070174;28;20374;-81
2022/12/24 12:25:06;;;;;;;11.73;2.38;;;9.60;99.90;;;;;;5056167;28;20040;-81
2022/12/24 12:27:55;;;;;;;9.50;2.80;;;9.50;99.90;;;;;;5082040;28;20077;-81
2022/12/24 12:30:23;;;;;;;8.88;2.40;;;9.40;99.90;;;;;;5070589;28;20050;-81
2022/12/24 12:32:57;;;;;;;4.53;2.05;;;9.40;99.90;;;;;;5081952;28;20028;-81
2022/12/24 12:35:33;;;;;;;8.40;2.50;;;9.30;99.90;;;;;;5075182;28;20058;-81
2022/12/24 12:38:09;;;;;;;5.13;2.50;;;9.40;99.90;;;;;;5078885;28;20024;-81
2022/12/24 12:41:07;;;;;;;4.50;2.38;;;9.30;99.90;;;;;;5080621;28;20456;-81
2022/12/24 12:43:38;;;;;;;7.38;2.88;;;9.30;99.90;;;;;;5079903;28;20024;-81
2022/12/24 12:46:12;;;;;;;3.85;2.10;;;9.40;99.90;;;;;;5075534;28;20028;-81
2022/12/24 12:49:22;;;;;;;3.35;2.13;;;9.30;99.90;;;;;;5074509;28;20078;-81
2022/12/24 12:52:35;;;;;;;6.20;2.03;;;9.30;99.90;;;;;;5049909;28;20089;-81
2022/12/24 12:55:22;;;;;;;6.20;2.00;;;9.30;99.90;;;;;;4995707;28;20030;-81
2022/12/24 12:57:51;;;;;;;5.85;2.03;;;9.30;99.90;;;;;;5065195;28;20046;-81
2022/12/24 13:00:18;;;;;;;22.65;4.82;;;9.30;99.90;;;;;;5070326;28;20481;-79
2022/12/24 13:03:34;;;;;;;16.30;5.07;;;9.40;99.90;;;;;;5073289;28;20094;-80
2022/12/24 13:06:07;;;;;;;26.50;7.55;;;9.50;99.90;;;;;;5072514;28;20035;-80
2022/12/24 13:08:50;;;;;;;30.77;6.78;;;9.60;99.90;;;;;;5070001;28;20012;-82
2022/12/24 13:11:25;;;;;;;28.88;6.78;;;9.70;99.90;;;;;;5075750;28;20153;-79